Milwaukee, Wisconsin
Traffic Map
Current Weather Conditions
Milwaukee, Wisconsin
Broken Clouds
Broken Clouds
51°
Feels Like: 51°
Wind Chill: 51° Ceiling: 25000
Heat Index: 51° Visibility: 10mi
Dew Point: 27° Wind: 9mph
Humidity: 39% Direction: 140° (SE)
Pressure: 30.46in Gusts: 0mph
Raw Report DataKMKE 202152Z 14008KT 10SM BKN250 11/M03 A3046 RMK AO2 SLP322 T01061028
Traffic Incident Summary
Active as of:
Severity:
Category:
InformationThere was an issue retrieving the traffic information for this location. Please try a different location or try again shortly.
Advertisements